Time;durP1;ratioP1;P1;durP2;ratioP2;P2;SDS_P1;SDS_P2;PMS_P1;PMS_P2;Temp;Humidity;BMP_temperature;BMP_pressure;BME280_temperature;BME280_humidity;BME280_pressure;Samples;Min_cycle;Max_cycle;Signal;HPM_P1;HPM_P2
2024/01/28 00:00:39;;;;;;;4.23;3.40;;;;;;;;;;4967987;28;20181;-74
2024/01/28 00:03:05;;;;;;;6.47;3.33;;;;;;;;;;4960965;28;20271;-74
2024/01/28 00:05:33;;;;;;;5.30;3.33;;;;;;;;;;4968659;28;20209;-74
2024/01/28 00:07:59;;;;;;;5.83;3.37;;;;;;;;;;4957602;28;20225;-74
2024/01/28 00:10:25;;;;;;;7.87;4.63;;;;;;;;;;4966408;28;20224;-74
2024/01/28 00:12:50;;;;;;;6.50;3.90;;;;;;;;;;4951950;28;20188;-74
2024/01/28 00:15:15;;;;;;;5.13;3.40;;;;;;;;;;4965825;28;20208;-74
2024/01/28 00:17:41;;;;;;;5.83;3.10;;;;;;;;;;4952992;28;20240;-74
2024/01/28 00:20:06;;;;;;;4.80;3.80;;;;;;;;;;4974206;28;20181;-75
2024/01/28 00:22:31;;;;;;;6.83;3.60;;;;;;;;;;4969100;28;20169;-74
2024/01/28 00:24:57;;;;;;;4.53;3.23;;;;;;;;;;4956831;28;20184;-74
2024/01/28 00:27:22;;;;;;;3.50;3.03;;;;;;;;;;4955747;28;20264;-74
2024/01/28 00:29:47;;;;;;;7.00;3.33;;;;;;;;;;4965485;28;20251;-74
2024/01/28 00:32:12;;;;;;;4.90;2.97;;;;;;;;;;4971163;28;20204;-74
2024/01/28 00:34:37;;;;;;;7.00;2.93;;;;;;;;;;4967838;28;20169;-74
2024/01/28 00:37:03;;;;;;;4.93;2.90;;;;;;;;;;4970882;28;20173;-74
2024/01/28 00:39:29;;;;;;;4.03;2.70;;;;;;;;;;4953275;28;20274;-74
2024/01/28 00:41:55;;;;;;;4.47;3.07;;;;;;;;;;4967351;28;20323;-74
2024/01/28 00:44:20;;;;;;;4.07;2.93;;;;;;;;;;4969359;28;20268;-74
2024/01/28 00:46:45;;;;;;;5.37;3.07;;;;;;;;;;4961705;28;20185;-74
2024/01/28 00:49:11;;;;;;;5.20;3.47;;;;;;;;;;4957322;28;20204;-75
2024/01/28 00:51:36;;;;;;;5.13;3.37;;;;;;;;;;4973712;28;20191;-74
2024/01/28 00:54:01;;;;;;;5.47;3.10;;;;;;;;;;4970657;28;20173;-74
2024/01/28 00:56:27;;;;;;;4.63;3.13;;;;;;;;;;4971771;28;20188;-74
2024/01/28 00:58:52;;;;;;;6.03;3.30;;;;;;;;;;4964178;28;20189;-74
2024/01/28 01:01:19;;;;;;;2.97;2.67;;;;;;;;;;4963663;28;20180;-74
2024/01/28 01:03:44;;;;;;;5.50;3.10;;;;;;;;;;4971448;28;20263;-74
2024/01/28 01:06:09;;;;;;;4.47;2.90;;;;;;;;;;4973396;28;20328;-74
2024/01/28 01:08:34;;;;;;;4.67;2.67;;;;;;;;;;4955510;28;20201;-74
2024/01/28 01:11:03;;;;;;;3.90;2.60;;;;;;;;;;4951449;28;20217;-74
2024/01/28 01:13:29;;;;;;;2.93;2.40;;;;;;;;;;4969107;28;20187;-74
2024/01/28 01:15:55;;;;;;;3.50;2.43;;;;;;;;;;4966312;28;20258;-74
2024/01/28 01:18:20;;;;;;;4.63;2.50;;;;;;;;;;4969516;28;20189;-74
2024/01/28 01:20:45;;;;;;;4.87;2.97;;;;;;;;;;4953150;28;20670;-74
2024/01/28 01:23:10;;;;;;;5.70;2.40;;;;;;;;;;4958787;28;20189;-74
2024/01/28 01:25:36;;;;;;;4.90;2.73;;;;;;;;;;4953540;28;20184;-74
2024/01/28 01:28:01;;;;;;;2.80;2.37;;;;;;;;;;4968657;28;20208;-74
2024/01/28 01:30:26;;;;;;;3.27;2.60;;;;;;;;;;4970365;28;20184;-74
2024/01/28 01:32:51;;;;;;;2.93;2.30;;;;;;;;;;4952849;28;20182;-74
2024/01/28 01:35:17;;;;;;;3.43;2.17;;;;;;;;;;4962374;28;20174;-74
2024/01/28 01:37:42;;;;;;;2.67;2.00;;;;;;;;;;4970466;28;20181;-74
2024/01/28 01:40:07;;;;;;;2.90;2.13;;;;;;;;;;4954628;28;20256;-74
2024/01/28 01:42:33;;;;;;;5.53;2.77;;;;;;;;;;4955610;28;20181;-74
2024/01/28 01:44:58;;;;;;;2.47;2.13;;;;;;;;;;4955015;28;20252;-74
2024/01/28 01:47:24;;;;;;;3.10;2.13;;;;;;;;;;4969268;28;20180;-74
2024/01/28 01:49:50;;;;;;;2.40;1.93;;;;;;;;;;4961751;28;20213;-74
2024/01/28 01:52:16;;;;;;;4.13;1.60;;;;;;;;;;4954821;28;20177;-74
2024/01/28 01:54:48;;;;;;;3.97;2.13;;;;;;;;;;4968097;28;20177;-74
2024/01/28 01:57:14;;;;;;;2.37;2.17;;;;;;;;;;4965924;28;20177;-74
2024/01/28 01:59:40;;;;;;;2.70;1.70;;;;;;;;;;4968608;28;20207;-74
2024/01/28 02:02:06;;;;;;;3.97;2.10;;;;;;;;;;4973122;28;20188;-74
2024/01/28 02:04:31;;;;;;;2.37;1.93;;;;;;;;;;4965512;28;20213;-74
2024/01/28 02:06:56;;;;;;;2.40;1.63;;;;;;;;;;4953402;28;20336;-74
2024/01/28 02:09:21;;;;;;;3.47;1.67;;;;;;;;;;4970323;28;20215;-74
2024/01/28 02:11:46;;;;;;;2.57;1.80;;;;;;;;;;4967418;28;20188;-74
2024/01/28 02:14:21;;;;;;;2.07;1.87;;;;;;;;;;4967176;28;20196;-74
2024/01/28 02:16:48;;;;;;;2.10;1.83;;;;;;;;;;4966487;28;20181;-74
2024/01/28 02:19:13;;;;;;;5.70;1.87;;;;;;;;;;4956532;28;20264;-74
2024/01/28 02:21:38;;;;;;;1.50;1.40;;;;;;;;;;4953222;28;20212;-74
2024/01/28 02:24:04;;;;;;;2.13;1.90;;;;;;;;;;4953825;28;20199;-75
2024/01/28 02:26:29;;;;;;;2.13;1.93;;;;;;;;;;4967849;28;20340;-74
2024/01/28 02:28:54;;;;;;;2.33;1.60;;;;;;;;;;4947988;28;20214;-74
2024/01/28 02:31:20;;;;;;;4.07;1.80;;;;;;;;;;4953917;28;20328;-74
2024/01/28 02:33:45;;;;;;;1.70;1.60;;;;;;;;;;4945081;28;20185;-75
2024/01/28 02:36:10;;;;;;;3.50;1.70;;;;;;;;;;4972216;28;20183;-74
2024/01/28 02:38:35;;;;;;;2.10;1.50;;;;;;;;;;4951704;28;20213;-75
2024/01/28 02:41:01;;;;;;;2.00;1.73;;;;;;;;;;4968545;28;20193;-74
2024/01/28 02:43:26;;;;;;;1.57;1.47;;;;;;;;;;4951106;28;20239;-74
2024/01/28 02:45:51;;;;;;;2.20;1.60;;;;;;;;;;4963628;28;20191;-74
2024/01/28 02:48:16;;;;;;;1.80;1.50;;;;;;;;;;4965359;28;20211;-74
2024/01/28 02:50:41;;;;;;;2.97;1.67;;;;;;;;;;4952759;28;20209;-74
2024/01/28 02:53:07;;;;;;;1.97;1.40;;;;;;;;;;4967507;28;20246;-74
2024/01/28 02:55:32;;;;;;;2.37;1.50;;;;;;;;;;4967261;28;20185;-74
2024/01/28 02:57:57;;;;;;;1.50;1.40;;;;;;;;;;4952005;28;20217;-74
2024/01/28 03:00:22;;;;;;;1.30;1.20;;;;;;;;;;4950723;28;20276;-75
2024/01/28 03:02:48;;;;;;;2.00;1.27;;;;;;;;;;4954171;28;20185;-74
2024/01/28 03:05:13;;;;;;;2.47;1.37;;;;;;;;;;4971997;28;20176;-74
2024/01/28 03:07:39;;;;;;;1.20;1.10;;;;;;;;;;4956443;28;20184;-74
2024/01/28 03:10:05;;;;;;;1.37;1.27;;;;;;;;;;4968412;28;20233;-74
2024/01/28 03:12:33;;;;;;;2.30;1.43;;;;;;;;;;4954532;28;20177;-74
2024/01/28 03:14:58;;;;;;;1.50;1.10;;;;;;;;;;4962715;28;20272;-74
2024/01/28 03:17:23;;;;;;;1.53;1.43;;;;;;;;;;4965450;28;20293;-74
2024/01/28 03:19:48;;;;;;;2.47;1.13;;;;;;;;;;4965497;28;20204;-74
2024/01/28 03:22:13;;;;;;;1.07;1.07;;;;;;;;;;4967521;28;20192;-74
2024/01/28 03:24:40;;;;;;;2.07;1.20;;;;;;;;;;4964832;28;20180;-74
2024/01/28 03:27:05;;;;;;;1.20;1.10;;;;;;;;;;4968339;28;20220;-74
2024/01/28 03:29:32;;;;;;;1.83;1.20;;;;;;;;;;4968037;28;20229;-74
2024/01/28 03:31:57;;;;;;;2.00;0.83;;;;;;;;;;4961447;28;20189;-74
2024/01/28 03:34:22;;;;;;;0.90;0.90;;;;;;;;;;4967020;28;20185;-74
2024/01/28 03:36:48;;;;;;;1.03;1.00;;;;;;;;;;4966336;28;20181;-74
2024/01/28 03:39:14;;;;;;;2.27;1.30;;;;;;;;;;4948812;28;20185;-74
2024/01/28 03:41:39;;;;;;;1.13;1.00;;;;;;;;;;4948800;28;20192;-74
2024/01/28 03:44:04;;;;;;;0.93;0.93;;;;;;;;;;4966078;28;20243;-74
2024/01/28 03:46:30;;;;;;;0.80;0.80;;;;;;;;;;4968531;28;20247;-74
2024/01/28 03:48:55;;;;;;;1.03;1.03;;;;;;;;;;4969598;28;20288;-74
2024/01/28 03:51:20;;;;;;;1.00;0.90;;;;;;;;;;4965659;28;20273;-74
2024/01/28 03:53:46;;;;;;;1.67;1.30;;;;;;;;;;4955486;28;20181;-74
2024/01/28 03:56:11;;;;;;;1.27;1.17;;;;;;;;;;4967130;28;20181;-74
2024/01/28 03:58:36;;;;;;;0.83;0.83;;;;;;;;;;4948786;28;20189;-74
2024/01/28 04:01:03;;;;;;;1.77;1.00;;;;;;;;;;4947466;28;20181;-74
2024/01/28 04:03:28;;;;;;;1.00;0.90;;;;;;;;;;4959721;28;20188;-74
2024/01/28 04:05:53;;;;;;;1.40;1.10;;;;;;;;;;4954362;28;20176;-74
2024/01/28 04:08:18;;;;;;;1.00;0.90;;;;;;;;;;4961912;28;20193;-74
2024/01/28 04:10:43;;;;;;;1.30;0.80;;;;;;;;;;4969448;28;20264;-74
2024/01/28 04:13:09;;;;;;;1.03;0.93;;;;;;;;;;4952800;28;20340;-74
2024/01/28 04:15:34;;;;;;;1.30;0.80;;;;;;;;;;4963644;28;20235;-74
2024/01/28 04:17:59;;;;;;;0.90;0.90;;;;;;;;;;4949736;28;20251;-74
2024/01/28 04:20:24;;;;;;;1.10;1.00;;;;;;;;;;4951308;28;20204;-74
2024/01/28 04:22:50;;;;;;;1.17;1.10;;;;;;;;;;4965621;28;20214;-74
2024/01/28 04:25:18;;;;;;;1.17;0.90;;;;;;;;;;4963005;28;20196;-74
2024/01/28 04:27:43;;;;;;;1.37;1.17;;;;;;;;;;4952849;28;20176;-74
2024/01/28 04:30:09;;;;;;;0.80;0.80;;;;;;;;;;4964430;28;20183;-74
2024/01/28 04:32:35;;;;;;;0.80;0.80;;;;;;;;;;4960024;28;20180;-74
2024/01/28 04:35:00;;;;;;;1.10;1.07;;;;;;;;;;4967495;28;20208;-74
2024/01/28 04:37:29;;;;;;;0.83;0.83;;;;;;;;;;4952762;28;20260;-74
2024/01/28 04:39:55;;;;;;;0.87;0.87;;;;;;;;;;4946136;28;20185;-74
2024/01/28 04:42:22;;;;;;;1.27;0.80;;;;;;;;;;4952054;28;20217;-74
2024/01/28 04:44:51;;;;;;;1.00;0.90;;;;;;;;;;4952184;28;20247;-74
2024/01/28 04:47:16;;;;;;;0.83;0.83;;;;;;;;;;4965460;28;20186;-74
2024/01/28 04:49:41;;;;;;;1.30;1.10;;;;;;;;;;4949435;28;20211;-74
2024/01/28 04:52:07;;;;;;;0.80;0.80;;;;;;;;;;4948938;28;20185;-74
2024/01/28 04:54:32;;;;;;;0.70;0.70;;;;;;;;;;4967508;28;20181;-74
2024/01/28 04:57:01;;;;;;;2.43;0.90;;;;;;;;;;4966903;28;20183;-74
2024/01/28 04:59:26;;;;;;;0.90;0.87;;;;;;;;;;4964335;28;20178;-74
2024/01/28 05:01:51;;;;;;;1.07;1.00;;;;;;;;;;4957680;28;20221;-74
2024/01/28 05:04:16;;;;;;;0.80;0.77;;;;;;;;;;4958658;28;20203;-74
2024/01/28 05:06:41;;;;;;;0.77;0.77;;;;;;;;;;4970613;28;20196;-74
2024/01/28 05:09:08;;;;;;;1.00;0.90;;;;;;;;;;4971067;28;20263;-74
2024/01/28 05:11:33;;;;;;;1.57;0.70;;;;;;;;;;4954477;28;20289;-73
2024/01/28 05:13:59;;;;;;;0.60;0.60;;;;;;;;;;4955633;28;20192;-74
2024/01/28 05:16:25;;;;;;;0.60;0.60;;;;;;;;;;4961856;28;20193;-74
2024/01/28 05:18:51;;;;;;;0.83;0.83;;;;;;;;;;4971727;28;20256;-74
2024/01/28 05:21:16;;;;;;;1.00;0.57;;;;;;;;;;4955957;28;20340;-74
2024/01/28 05:23:42;;;;;;;0.50;0.50;;;;;;;;;;4965170;28;20185;-74
2024/01/28 05:26:07;;;;;;;0.70;0.70;;;;;;;;;;4969659;28;20215;-74
2024/01/28 05:28:32;;;;;;;0.90;0.90;;;;;;;;;;4969497;28;20208;-74
2024/01/28 05:30:57;;;;;;;0.50;0.50;;;;;;;;;;4970829;28;20178;-74
2024/01/28 05:33:22;;;;;;;0.80;0.80;;;;;;;;;;4966433;28;20173;-74
2024/01/28 05:35:48;;;;;;;1.30;1.20;;;;;;;;;;4955742;28;20184;-74
2024/01/28 05:38:13;;;;;;;1.10;1.03;;;;;;;;;;4953760;28;20185;-74
2024/01/28 05:40:38;;;;;;;1.20;1.20;;;;;;;;;;4959775;28;20278;-74
2024/01/28 05:43:03;;;;;;;2.07;1.60;;;;;;;;;;4965668;28;20213;-74
2024/01/28 05:45:28;;;;;;;7.30;6.13;;;;;;;;;;4970966;28;20192;-74
2024/01/28 05:47:56;;;;;;;3.73;2.93;;;;;;;;;;4963453;28;20264;-74
2024/01/28 05:50:21;;;;;;;0.50;0.50;;;;;;;;;;4953924;28;20224;-74
2024/01/28 05:52:46;;;;;;;0.60;0.60;;;;;;;;;;4958184;28;20195;-74
2024/01/28 05:55:12;;;;;;;0.67;0.67;;;;;;;;;;4957434;28;20228;-74
2024/01/28 05:57:37;;;;;;;0.60;0.60;;;;;;;;;;4969873;28;20181;-74
2024/01/28 06:00:03;;;;;;;0.63;0.63;;;;;;;;;;4953274;28;20185;-74
2024/01/28 06:02:28;;;;;;;0.40;0.40;;;;;;;;;;4966539;28;20180;-74
2024/01/28 06:04:53;;;;;;;0.63;0.63;;;;;;;;;;4954249;28;20193;-74
2024/01/28 06:07:19;;;;;;;0.60;0.60;;;;;;;;;;4970633;28;20181;-73
2024/01/28 06:09:44;;;;;;;0.50;0.50;;;;;;;;;;4969280;28;20221;-73
2024/01/28 06:12:09;;;;;;;0.70;0.70;;;;;;;;;;4950798;28;20198;-73
2024/01/28 06:14:34;;;;;;;0.60;0.60;;;;;;;;;;4972415;28;20173;-74
2024/01/28 06:16:59;;;;;;;1.53;0.97;;;;;;;;;;4954233;28;20181;-74
2024/01/28 06:19:25;;;;;;;0.63;0.63;;;;;;;;;;4971346;28;20181;-73
2024/01/28 06:21:50;;;;;;;0.60;0.60;;;;;;;;;;4969770;28;20188;-74
2024/01/28 06:24:16;;;;;;;0.80;0.80;;;;;;;;;;4954635;28;20212;-74
2024/01/28 06:26:41;;;;;;;1.37;0.57;;;;;;;;;;4951954;28;20189;-74
2024/01/28 06:29:06;;;;;;;0.50;0.50;;;;;;;;;;4954181;28;20223;-74
2024/01/28 06:31:31;;;;;;;1.13;1.07;;;;;;;;;;4953621;28;20267;-74
2024/01/28 06:33:57;;;;;;;0.40;0.40;;;;;;;;;;4954543;28;20251;-73
2024/01/28 06:36:22;;;;;;;0.87;0.80;;;;;;;;;;4968155;28;20193;-74
2024/01/28 06:38:47;;;;;;;1.13;0.80;;;;;;;;;;4950647;28;20263;-74
2024/01/28 06:41:13;;;;;;;2.00;0.90;;;;;;;;;;4953186;28;20184;-74
2024/01/28 06:43:38;;;;;;;2.47;1.40;;;;;;;;;;4953934;28;20275;-74
2024/01/28 06:46:04;;;;;;;0.93;0.87;;;;;;;;;;4977359;28;20236;-73
2024/01/28 06:48:31;;;;;;;1.20;1.10;;;;;;;;;;4972455;28;20261;-74
2024/01/28 06:50:56;;;;;;;1.00;1.00;;;;;;;;;;4972999;28;20168;-74
2024/01/28 06:53:21;;;;;;;0.67;0.67;;;;;;;;;;4972880;28;20184;-74
2024/01/28 06:55:47;;;;;;;0.67;0.67;;;;;;;;;;4968482;28;20179;-73
2024/01/28 06:58:12;;;;;;;0.70;0.70;;;;;;;;;;4955197;28;20189;-73
2024/01/28 07:00:37;;;;;;;1.20;1.07;;;;;;;;;;4974385;28;20240;-74
2024/01/28 07:03:03;;;;;;;0.87;0.87;;;;;;;;;;4968033;28;20192;-74
2024/01/28 07:05:28;;;;;;;3.47;1.80;;;;;;;;;;4973312;28;20184;-73
2024/01/28 07:07:54;;;;;;;1.73;1.60;;;;;;;;;;4961943;28;20239;-73
2024/01/28 07:10:19;;;;;;;2.00;1.10;;;;;;;;;;4971989;28;20220;-74
2024/01/28 07:12:44;;;;;;;1.60;1.50;;;;;;;;;;4970126;28;20227;-74
2024/01/28 07:15:09;;;;;;;1.57;1.47;;;;;;;;;;4964328;28;20224;-74
2024/01/28 07:17:35;;;;;;;1.40;1.30;;;;;;;;;;4953806;28;20264;-74
2024/01/28 07:20:00;;;;;;;1.73;1.53;;;;;;;;;;4951449;28;20208;-74
2024/01/28 07:22:25;;;;;;;2.00;1.80;;;;;;;;;;4963928;28;20184;-74
2024/01/28 07:24:50;;;;;;;1.07;1.07;;;;;;;;;;4953706;28;20275;-73
2024/01/28 07:27:18;;;;;;;0.73;0.60;;;;;;;;;;4969928;28;20177;-75
2024/01/28 07:29:44;;;;;;;0.60;0.60;;;;;;;;;;4967553;28;20204;-74
2024/01/28 07:32:13;;;;;;;0.67;0.63;;;;;;;;;;4948884;28;20255;-74
2024/01/28 07:34:38;;;;;;;1.10;0.80;;;;;;;;;;4963472;28;20181;-74
2024/01/28 07:37:03;;;;;;;1.13;0.90;;;;;;;;;;4950108;28;20236;-74
2024/01/28 07:39:29;;;;;;;0.60;0.60;;;;;;;;;;4963190;28;20272;-74
2024/01/28 07:41:54;;;;;;;1.57;0.57;;;;;;;;;;4950818;28;20275;-73
2024/01/28 07:44:19;;;;;;;0.70;0.70;;;;;;;;;;4950313;28;20195;-74
2024/01/28 07:46:45;;;;;;;1.63;1.30;;;;;;;;;;4964112;28;20195;-73
2024/01/28 07:49:10;;;;;;;0.50;0.50;;;;;;;;;;4958969;28;20236;-74
2024/01/28 07:51:36;;;;;;;0.50;0.50;;;;;;;;;;4952309;28;20193;-73
2024/01/28 07:54:01;;;;;;;1.40;0.63;;;;;;;;;;4965373;28;20203;-74
2024/01/28 07:56:27;;;;;;;0.63;0.63;;;;;;;;;;4965460;28;20195;-73
2024/01/28 07:58:52;;;;;;;0.70;0.50;;;;;;;;;;4961819;28;20191;-73
2024/01/28 08:01:17;;;;;;;0.50;0.50;;;;;;;;;;4953630;28;20188;-74
2024/01/28 08:03:42;;;;;;;0.50;0.50;;;;;;;;;;4969663;28;20239;-74
2024/01/28 08:06:09;;;;;;;0.43;0.43;;;;;;;;;;4967030;28;20189;-74
2024/01/28 08:08:34;;;;;;;0.50;0.50;;;;;;;;;;4948023;28;20304;-75
2024/01/28 08:10:59;;;;;;;0.77;0.60;;;;;;;;;;4966234;28;20304;-74
2024/01/28 08:13:24;;;;;;;0.60;0.60;;;;;;;;;;4949942;28;20272;-76
2024/01/28 08:15:50;;;;;;;0.47;0.47;;;;;;;;;;4950261;28;20187;-75
2024/01/28 08:18:15;;;;;;;0.83;0.83;;;;;;;;;;4949567;28;20214;-75
2024/01/28 08:20:40;;;;;;;0.87;0.87;;;;;;;;;;4947017;28;20187;-74
2024/01/28 08:23:06;;;;;;;0.50;0.50;;;;;;;;;;4952103;28;20243;-75
2024/01/28 08:25:31;;;;;;;0.53;0.53;;;;;;;;;;4956198;28;20192;-74
2024/01/28 08:27:56;;;;;;;0.50;0.50;;;;;;;;;;4964209;28;20185;-74
2024/01/28 08:30:23;;;;;;;0.43;0.43;;;;;;;;;;4946036;28;20177;-74
2024/01/28 08:32:49;;;;;;;0.70;0.70;;;;;;;;;;4966632;28;20173;-74
2024/01/28 08:35:14;;;;;;;1.23;0.60;;;;;;;;;;4969543;28;20176;-74
2024/01/28 08:37:39;;;;;;;0.87;0.80;;;;;;;;;;4951314;28;20208;-74
2024/01/28 08:40:07;;;;;;;0.70;0.70;;;;;;;;;;4966213;28;20220;-74
2024/01/28 08:42:32;;;;;;;0.67;0.40;;;;;;;;;;4953537;28;20255;-74
2024/01/28 08:44:58;;;;;;;2.93;0.60;;;;;;;;;;4972185;28;20216;-74
2024/01/28 08:47:23;;;;;;;0.40;0.40;;;;;;;;;;4954565;28;20189;-73
2024/01/28 08:49:50;;;;;;;0.53;0.53;;;;;;;;;;4969039;28;20259;-74
2024/01/28 08:52:15;;;;;;;0.60;0.60;;;;;;;;;;4960846;28;20180;-73
2024/01/28 08:54:43;;;;;;;0.50;0.50;;;;;;;;;;4956751;28;20181;-73
2024/01/28 08:57:09;;;;;;;1.37;0.97;;;;;;;;;;4956863;28;20181;-73
2024/01/28 08:59:34;;;;;;;0.60;0.60;;;;;;;;;;4971400;28;20185;-72
2024/01/28 09:02:00;;;;;;;0.50;0.50;;;;;;;;;;4956949;28;20181;-73
2024/01/28 09:04:25;;;;;;;3.83;0.87;;;;;;;;;;4954256;28;20188;-72
2024/01/28 09:06:51;;;;;;;0.60;0.60;;;;;;;;;;4969954;28;20196;-72
2024/01/28 09:09:16;;;;;;;0.70;0.70;;;;;;;;;;4972976;28;20245;-72
2024/01/28 09:11:42;;;;;;;0.60;0.60;;;;;;;;;;4977437;28;20243;-72
2024/01/28 09:14:07;;;;;;;0.40;0.40;;;;;;;;;;4978087;28;20182;-72
2024/01/28 09:16:32;;;;;;;1.13;1.10;;;;;;;;;;4954103;28;20181;-73
2024/01/28 09:18:57;;;;;;;0.73;0.73;;;;;;;;;;4971213;28;20186;-72
2024/01/28 09:21:22;;;;;;;1.40;1.13;;;;;;;;;;4956232;28;20276;-73
2024/01/28 09:23:48;;;;;;;0.80;0.80;;;;;;;;;;4968371;28;20236;-73
2024/01/28 09:26:13;;;;;;;5.33;1.47;;;;;;;;;;4974228;28;20204;-72
2024/01/28 09:28:39;;;;;;;0.70;0.70;;;;;;;;;;4972999;28;20271;-73
2024/01/28 09:31:07;;;;;;;1.00;1.00;;;;;;;;;;4973686;28;20182;-73
2024/01/28 09:33:33;;;;;;;0.73;0.73;;;;;;;;;;4956647;28;20185;-72
2024/01/28 09:35:58;;;;;;;1.23;0.80;;;;;;;;;;4957193;28;20183;-73
2024/01/28 09:38:23;;;;;;;1.23;0.80;;;;;;;;;;4976012;28;20184;-73
2024/01/28 09:40:49;;;;;;;1.23;1.13;;;;;;;;;;4973597;28;20201;-73
2024/01/28 09:43:19;;;;;;;3.17;1.10;;;;;;;;;;4960776;28;20192;-73
2024/01/28 09:45:44;;;;;;;8.50;1.30;;;;;;;;;;4956344;28;20188;-72
2024/01/28 09:48:10;;;;;;;1.00;0.90;;;;;;;;;;4973923;28;20204;-73
2024/01/28 09:50:36;;;;;;;5.20;1.37;;;;;;;;;;4973358;28;20244;-72
2024/01/28 09:53:01;;;;;;;0.70;0.70;;;;;;;;;;4956552;28;20426;-73
2024/01/28 09:55:26;;;;;;;0.73;0.70;;;;;;;;;;4970009;28;20182;-73
2024/01/28 09:57:52;;;;;;;1.50;1.03;;;;;;;;;;4956386;28;20234;-72
2024/01/28 10:00:17;;;;;;;0.90;0.90;;;;;;;;;;4956094;28;20185;-72
2024/01/28 10:02:42;;;;;;;0.60;0.60;;;;;;;;;;4975943;28;20179;-73
2024/01/28 10:05:10;;;;;;;0.60;0.60;;;;;;;;;;4956791;28;20234;-72
2024/01/28 10:07:43;;;;;;;3.93;1.23;;;;;;;;;;4971191;28;20266;-73
2024/01/28 10:10:08;;;;;;;3.57;1.13;;;;;;;;;;4955667;28;20234;-73
2024/01/28 10:12:33;;;;;;;0.73;0.73;;;;;;;;;;4970496;28;20191;-73
2024/01/28 10:14:59;;;;;;;0.67;0.67;;;;;;;;;;4956027;28;20263;-73
2024/01/28 10:17:24;;;;;;;0.67;0.67;;;;;;;;;;4957183;28;20179;-73
2024/01/28 10:19:49;;;;;;;0.53;0.53;;;;;;;;;;4955084;28;20220;-73
2024/01/28 10:22:14;;;;;;;0.53;0.53;;;;;;;;;;4971309;28;20189;-73
2024/01/28 10:24:42;;;;;;;0.70;0.70;;;;;;;;;;4971829;28;20183;-72
2024/01/28 10:27:07;;;;;;;0.70;0.70;;;;;;;;;;4971437;28;20181;-73
2024/01/28 10:29:32;;;;;;;0.60;0.60;;;;;;;;;;4967299;28;20234;-73
2024/01/28 10:32:03;;;;;;;0.97;0.50;;;;;;;;;;4956112;28;20264;-73
2024/01/28 10:34:29;;;;;;;1.37;1.10;;;;;;;;;;4968667;28;20185;-73
2024/01/28 10:36:55;;;;;;;0.80;0.70;;;;;;;;;;4962534;28;20176;-73
2024/01/28 10:39:21;;;;;;;2.37;1.10;;;;;;;;;;4972822;28;20180;-73
2024/01/28 10:41:48;;;;;;;0.30;0.30;;;;;;;;;;4952815;28;20464;-73
2024/01/28 10:44:14;;;;;;;0.90;0.90;;;;;;;;;;4956035;28;20207;-74
2024/01/28 10:46:41;;;;;;;1.27;0.70;;;;;;;;;;4972170;28;20211;-73
2024/01/28 10:49:07;;;;;;;0.50;0.50;;;;;;;;;;4976620;28;20282;-73
2024/01/28 10:51:33;;;;;;;0.50;0.43;;;;;;;;;;4974028;28;20188;-73
2024/01/28 10:53:59;;;;;;;0.53;0.53;;;;;;;;;;4962501;28;20187;-73
2024/01/28 10:56:24;;;;;;;3.57;0.87;;;;;;;;;;4967428;28;20185;-73
2024/01/28 10:58:50;;;;;;;0.40;0.40;;;;;;;;;;4954359;28;20182;-74
2024/01/28 11:01:15;;;;;;;0.60;0.60;;;;;;;;;;4978009;28;20194;-73
2024/01/28 11:03:40;;;;;;;0.77;0.57;;;;;;;;;;4958945;28;20194;-73
2024/01/28 11:06:06;;;;;;;1.13;0.73;;;;;;;;;;4971766;28;20191;-73
2024/01/28 11:08:31;;;;;;;2.17;0.73;;;;;;;;;;4970962;28;20196;-74
2024/01/28 11:10:59;;;;;;;1.37;0.60;;;;;;;;;;4972453;28;20226;-73
2024/01/28 11:13:24;;;;;;;0.60;0.60;;;;;;;;;;4965067;28;20181;-74
2024/01/28 11:15:50;;;;;;;1.10;0.70;;;;;;;;;;4971801;28;20180;-74
2024/01/28 11:18:15;;;;;;;0.50;0.50;;;;;;;;;;4955297;28;20305;-73
2024/01/28 11:20:41;;;;;;;0.63;0.63;;;;;;;;;;4973430;28;20264;-73
2024/01/28 11:23:13;;;;;;;0.70;0.70;;;;;;;;;;4955289;28;20240;-73
2024/01/28 11:25:39;;;;;;;0.40;0.40;;;;;;;;;;4973607;28;20192;-73
2024/01/28 11:28:05;;;;;;;0.50;0.50;;;;;;;;;;4952819;28;20188;-78
2024/01/28 11:30:31;;;;;;;0.70;0.70;;;;;;;;;;4975956;28;20168;-78
2024/01/28 11:33:16;;;;;;;3.00;0.80;;;;;;;;;;4954779;28;20177;-78
2024/01/28 11:35:43;;;;;;;0.43;0.43;;;;;;;;;;4954230;28;20185;-78
2024/01/28 11:38:10;;;;;;;0.60;0.60;;;;;;;;;;4953996;28;20192;-79
2024/01/28 11:40:37;;;;;;;0.53;0.53;;;;;;;;;;4967072;28;20183;-78
2024/01/28 11:43:04;;;;;;;4.57;0.80;;;;;;;;;;4956376;28;20173;-79
2024/01/28 11:45:29;;;;;;;0.60;0.60;;;;;;;;;;4950863;28;20242;-79
2024/01/28 11:47:55;;;;;;;0.57;0.57;;;;;;;;;;4951234;28;20264;-79
2024/01/28 11:50:20;;;;;;;0.70;0.70;;;;;;;;;;4953670;28;20173;-78
2024/01/28 11:52:45;;;;;;;0.90;0.90;;;;;;;;;;4954150;28;20195;-78
2024/01/28 11:55:14;;;;;;;27.57;3.93;;;;;;;;;;4952031;28;20177;-79
2024/01/28 11:57:40;;;;;;;0.80;0.80;;;;;;;;;;4951881;28;20181;-78
2024/01/28 12:00:08;;;;;;;1.00;0.90;;;;;;;;;;4953394;28;20180;-78
2024/01/28 12:02:33;;;;;;;0.90;0.90;;;;;;;;;;4954209;28;20189;-79
2024/01/28 12:04:59;;;;;;;13.20;2.43;;;;;;;;;;4971740;28;20326;-78
2024/01/28 12:07:24;;;;;;;2.63;1.60;;;;;;;;;;4952956;28;20197;-78
2024/01/28 12:09:50;;;;;;;0.97;0.83;;;;;;;;;;4951807;28;20226;-78
2024/01/28 12:12:15;;;;;;;2.37;1.40;;;;;;;;;;4952912;28;20215;-78
2024/01/28 12:14:41;;;;;;;5.43;2.73;;;;;;;;;;4952087;28;20268;-79
2024/01/28 12:17:07;;;;;;;1.77;1.37;;;;;;;;;;4951193;28;20181;-78
2024/01/28 12:19:32;;;;;;;2.67;1.63;;;;;;;;;;4951024;28;20192;-79
2024/01/28 12:21:58;;;;;;;3.17;1.97;;;;;;;;;;4953912;28;20181;-78
2024/01/28 12:24:23;;;;;;;2.87;1.90;;;;;;;;;;4954694;28;20182;-79
2024/01/28 12:26:48;;;;;;;2.20;1.70;;;;;;;;;;4953844;28;20181;-78
2024/01/28 12:29:14;;;;;;;2.37;1.47;;;;;;;;;;4952988;28;20276;-78
2024/01/28 12:31:39;;;;;;;5.47;2.17;;;;;;;;;;4951227;28;20218;-79
2024/01/28 12:34:12;;;;;;;1.03;0.93;;;;;;;;;;4973343;28;20187;-78
2024/01/28 12:36:37;;;;;;;0.73;0.73;;;;;;;;;;4953203;28;20179;-79
2024/01/28 12:39:03;;;;;;;2.60;1.10;;;;;;;;;;4953659;28;20186;-78
2024/01/28 12:41:29;;;;;;;1.07;1.00;;;;;;;;;;4972584;28;20487;-79
2024/01/28 12:43:54;;;;;;;2.20;0.90;;;;;;;;;;4972683;28;20185;-78
2024/01/28 12:46:20;;;;;;;9.00;1.67;;;;;;;;;;4952102;28;20191;-78
2024/01/28 12:48:45;;;;;;;0.80;0.80;;;;;;;;;;4953612;28;20201;-78
2024/01/28 12:51:10;;;;;;;0.77;0.77;;;;;;;;;;4948280;28;20187;-78
2024/01/28 12:53:35;;;;;;;1.20;1.00;;;;;;;;;;4952707;28;20185;-79
2024/01/28 12:56:01;;;;;;;3.23;1.40;;;;;;;;;;4957025;28;20226;-78
2024/01/28 12:58:26;;;;;;;1.23;1.13;;;;;;;;;;4952095;28;20183;-79
2024/01/28 13:00:51;;;;;;;4.30;1.33;;;;;;;;;;4953739;28;20183;-78
2024/01/28 13:03:17;;;;;;;4.27;1.00;;;;;;;;;;4952682;28;20246;-78
2024/01/28 13:05:43;;;;;;;1.33;1.07;;;;;;;;;;4953292;28;20251;-79
2024/01/28 13:08:08;;;;;;;1.37;0.90;;;;;;;;;;4952644;28;20187;-79
2024/01/28 13:10:33;;;;;;;2.13;1.00;;;;;;;;;;4946369;28;20245;-79
2024/01/28 13:12:58;;;;;;;3.43;1.33;;;;;;;;;;4950882;28;20190;-79
2024/01/28 13:15:23;;;;;;;1.47;0.97;;;;;;;;;;4965665;28;20182;-79
2024/01/28 13:17:49;;;;;;;1.40;0.87;;;;;;;;;;4963834;28;20184;-79
2024/01/28 13:20:14;;;;;;;0.70;0.70;;;;;;;;;;4968749;28;20190;-78
2024/01/28 13:22:43;;;;;;;2.60;1.10;;;;;;;;;;4948268;28;20177;-78
2024/01/28 13:25:09;;;;;;;1.27;1.10;;;;;;;;;;4953374;28;20199;-79
2024/01/28 13:27:34;;;;;;;1.77;1.20;;;;;;;;;;4973256;28;20180;-78
2024/01/28 13:29:59;;;;;;;1.40;1.30;;;;;;;;;;4956514;28;20217;-79
2024/01/28 13:32:24;;;;;;;3.60;1.43;;;;;;;;;;4971704;28;20295;-79
2024/01/28 13:34:49;;;;;;;1.37;1.10;;;;;;;;;;4973627;28;20224;-79
2024/01/28 13:37:16;;;;;;;7.60;1.60;;;;;;;;;;4962867;28;20181;-79
2024/01/28 13:39:42;;;;;;;1.10;1.00;;;;;;;;;;4959553;28;20183;-79
2024/01/28 13:42:07;;;;;;;2.00;1.40;;;;;;;;;;4955799;28;20199;-79
2024/01/28 13:44:32;;;;;;;1.50;1.33;;;;;;;;;;4956231;28;20244;-79
2024/01/28 13:46:58;;;;;;;1.73;1.20;;;;;;;;;;4974898;28;20246;-79
2024/01/28 13:49:26;;;;;;;3.87;1.87;;;;;;;;;;4967600;28;20242;-79
2024/01/28 13:51:51;;;;;;;4.43;2.00;;;;;;;;;;4953772;28;20181;-79
2024/01/28 13:54:17;;;;;;;2.77;1.60;;;;;;;;;;4971105;28;20238;-79
2024/01/28 13:56:42;;;;;;;2.33;1.50;;;;;;;;;;4967385;28;20278;-79
2024/01/28 13:59:07;;;;;;;1.40;1.30;;;;;;;;;;4953069;28;20296;-79
2024/01/28 14:01:32;;;;;;;1.40;1.30;;;;;;;;;;4956277;28;20279;-79
2024/01/28 14:03:57;;;;;;;7.43;1.50;;;;;;;;;;4964029;28;20183;-79
2024/01/28 14:06:23;;;;;;;1.47;1.37;;;;;;;;;;4953356;28;20187;-79
2024/01/28 14:08:49;;;;;;;2.50;1.70;;;;;;;;;;4957918;28;20225;-78
2024/01/28 14:11:14;;;;;;;1.53;1.43;;;;;;;;;;4973722;28;20315;-78
2024/01/28 14:13:39;;;;;;;1.77;1.60;;;;;;;;;;4955506;28;20272;-79
2024/01/28 14:16:05;;;;;;;4.27;2.30;;;;;;;;;;4954360;28;20185;-79
2024/01/28 14:18:31;;;;;;;1.57;1.47;;;;;;;;;;4955826;28;20199;-79
2024/01/28 14:20:56;;;;;;;1.50;1.40;;;;;;;;;;4950262;28;20188;-79
2024/01/28 14:23:21;;;;;;;2.00;1.50;;;;;;;;;;4954293;28;20188;-79
2024/01/28 14:25:47;;;;;;;1.60;1.50;;;;;;;;;;4963074;28;20177;-79
2024/01/28 14:28:12;;;;;;;4.27;1.80;;;;;;;;;;4951758;28;20247;-79
2024/01/28 14:30:38;;;;;;;1.70;1.60;;;;;;;;;;4954395;28;20177;-79
2024/01/28 14:33:03;;;;;;;3.60;1.63;;;;;;;;;;4955766;28;20177;-79